Time;durP1;ratioP1;P1;durP2;ratioP2;P2;SDS_P1;SDS_P2;PMS_P1;PMS_P2;Temp;Humidity;BMP_temperature;BMP_pressure;BME280_temperature;BME280_humidity;BME280_pressure;Samples;Min_cycle;Max_cycle;Signal;HPM_P1;HPM_P2
2022/02/13 00:00:55;;;;;;;5.78;2.42;;;;;;;18.29;39.61;101810.97;5052183;28;20036;-65
2022/02/13 00:03:23;;;;;;;6.55;2.72;;;;;;;18.28;39.17;101812.75;5052907;28;20025;-65
2022/02/13 00:05:49;;;;;;;5.88;2.70;;;;;;;18.24;39.53;101816.53;5052343;28;20033;-65
2022/02/13 00:08:15;;;;;;;5.07;2.60;;;;;;;18.23;39.24;101812.22;5052702;28;20487;-64
2022/02/13 00:10:40;;;;;;;5.45;2.47;;;;;;;18.21;39.75;101808.00;5053075;28;20029;-64
2022/02/13 00:13:05;;;;;;;5.57;2.80;;;;;;;18.16;39.47;101800.38;5052354;28;20025;-65
2022/02/13 00:15:31;;;;;;;7.40;2.60;;;;;;;18.16;39.69;101803.00;5052540;28;20032;-64
2022/02/13 00:17:56;;;;;;;6.23;2.97;;;;;;;18.14;39.66;101802.28;5052258;28;20515;-65
2022/02/13 00:20:22;;;;;;;6.80;2.55;;;;;;;18.11;39.68;101805.94;5051761;28;20286;-65
2022/02/13 00:22:48;;;;;;;7.00;2.70;;;;;;;18.08;39.72;101802.69;5052956;28;20390;-65
2022/02/13 00:25:13;;;;;;;6.45;2.53;;;;;;;18.06;39.80;101802.78;5052341;28;20500;-65
2022/02/13 00:27:39;;;;;;;5.60;2.25;;;;;;;18.04;39.91;101804.69;5051880;28;20088;-65
2022/02/13 00:30:07;;;;;;;5.30;2.40;;;;;;;18.03;39.88;101812.69;5052658;28;20021;-64
2022/02/13 00:32:32;;;;;;;5.10;2.50;;;;;;;17.99;39.74;101811.19;5052675;28;20044;-64
2022/02/13 00:34:58;;;;;;;4.57;2.30;;;;;;;17.97;39.51;101811.28;5051965;28;20020;-64
2022/02/13 00:37:23;;;;;;;4.87;2.37;;;;;;;17.95;39.79;101808.75;5052310;28;20029;-65
2022/02/13 00:39:48;;;;;;;6.00;2.50;;;;;;;17.93;39.73;101804.53;5052320;28;20328;-64
2022/02/13 00:42:13;;;;;;;6.60;2.27;;;;;;;17.91;39.57;101804.66;5051459;28;20456;-65
2022/02/13 00:44:39;;;;;;;6.88;2.45;;;;;;;17.90;39.91;101800.31;5052363;28;20300;-63
2022/02/13 00:47:04;;;;;;;4.88;2.45;;;;;;;17.88;39.46;101794.28;5052825;28;20082;-65
2022/02/13 00:49:30;;;;;;;6.93;2.85;;;;;;;17.84;39.67;101795.38;5051434;28;20028;-65
2022/02/13 00:51:55;;;;;;;5.67;2.73;;;;;;;17.83;39.47;101783.16;5052417;28;20037;-65
2022/02/13 00:54:21;;;;;;;6.93;2.85;;;;;;;17.80;39.79;101772.81;5052038;28;20308;-65
2022/02/13 00:56:46;;;;;;;5.95;2.45;;;;;;;17.80;39.83;101779.88;5051569;28;20481;-65
2022/02/13 00:59:12;;;;;;;5.90;2.13;;;;;;;17.77;39.83;101773.84;5051878;28;20028;-65
2022/02/13 01:01:37;;;;;;;4.63;2.42;;;;;;;17.75;39.84;101770.47;5052075;28;20419;-65
2022/02/13 01:04:06;;;;;;;6.82;2.40;;;;;;;17.75;39.62;101774.88;5051834;28;20029;-65
2022/02/13 01:06:31;;;;;;;5.45;2.20;;;;;;;17.73;39.92;101775.00;5052171;28;20061;-65
2022/02/13 01:08:57;;;;;;;6.20;2.47;;;;;;;17.71;39.75;101766.34;5051398;28;20064;-64
2022/02/13 01:11:22;;;;;;;7.72;2.50;;;;;;;17.70;39.80;101762.00;5051705;28;20029;-64
2022/02/13 01:13:48;;;;;;;6.15;2.40;;;;;;;17.68;39.86;101761.25;5052265;28;20076;-64
2022/02/13 01:16:18;;;;;;;6.10;2.35;;;;;;;17.67;39.69;101756.09;5051096;28;20632;-65
2022/02/13 01:18:43;;;;;;;6.32;2.60;;;;;;;17.65;39.95;101753.56;5052158;28;20029;-65
2022/02/13 01:21:12;;;;;;;7.63;2.50;;;;;;;17.65;39.97;101752.72;5051928;28;20167;-65
2022/02/13 01:23:38;;;;;;;6.00;2.67;;;;;;;17.64;40.61;101746.59;5051240;28;20052;-65
2022/02/13 01:26:03;;;;;;;5.22;2.67;;;;;;;17.67;40.75;101745.53;5052089;28;20017;-63
2022/02/13 01:28:28;;;;;;;4.22;2.05;;;;;;;17.69;40.64;101747.16;5051498;28;20028;-63
2022/02/13 01:30:57;;;;;;;6.07;2.80;;;;;;;17.70;40.65;101738.28;5055393;28;20503;-64
2022/02/13 01:33:23;;;;;;;4.53;2.25;;;;;;;17.71;40.40;101732.06;5055617;28;20262;-64
2022/02/13 01:35:48;;;;;;;6.28;2.78;;;;;;;17.72;40.55;101730.25;5056101;28;20032;-64
2022/02/13 01:38:14;;;;;;;5.43;2.57;;;;;;;17.72;40.37;101727.63;5054672;28;20051;-64
2022/02/13 01:40:39;;;;;;;6.00;2.60;;;;;;;17.74;40.22;101723.97;5055713;28;20294;-64
2022/02/13 01:43:04;;;;;;;4.50;2.43;;;;;;;17.75;40.39;101719.53;5055698;28;20060;-64
2022/02/13 01:45:29;;;;;;;8.05;2.50;;;;;;;17.71;40.17;101710.16;5054546;28;20286;-64
2022/02/13 01:47:55;;;;;;;5.90;2.10;;;;;;;17.72;40.37;101710.03;5055837;28;20036;-64
2022/02/13 01:50:20;;;;;;;7.17;2.67;;;;;;;17.74;40.48;101707.31;5055264;28;20819;-64
2022/02/13 01:52:45;;;;;;;5.75;2.55;;;;;;;17.73;40.06;101700.34;5055120;28;20282;-64
2022/02/13 01:55:11;;;;;;;8.40;2.83;;;;;;;17.74;39.77;101696.75;5055263;28;20595;-65
2022/02/13 01:57:36;;;;;;;6.25;2.40;;;;;;;17.72;39.42;101696.84;5055458;28;20392;-64
2022/02/13 02:00:06;;;;;;;5.20;2.40;;;;;;;17.72;39.39;101688.94;5054978;28;20079;-64
2022/02/13 02:02:31;;;;;;;5.93;2.45;;;;;;;17.70;39.44;101685.53;5055293;28;20108;-64
2022/02/13 02:04:57;;;;;;;6.60;2.42;;;;;;;17.71;39.03;101681.97;5055521;28;20429;-62
2022/02/13 02:07:23;;;;;;;6.47;2.40;;;;;;;17.71;39.11;101681.13;5054344;28;20037;-65
2022/02/13 02:09:51;;;;;;;5.47;2.30;;;;;;;17.70;38.95;101679.44;5055206;28;20400;-64
2022/02/13 02:12:17;;;;;;;6.55;2.42;;;;;;;17.65;39.25;101665.72;5054149;28;20190;-65
2022/02/13 02:14:42;;;;;;;7.45;2.67;;;;;;;17.68;39.19;101673.44;5055407;28;20074;-65
2022/02/13 02:17:08;;;;;;;5.72;2.35;;;;;;;17.67;40.05;101662.03;5054989;28;20393;-65
2022/02/13 02:19:35;;;;;;;6.00;2.92;;;;;;;17.67;40.08;101658.56;5054334;28;20108;-64
2022/02/13 02:22:07;;;;;;;6.65;2.45;;;;;;;17.68;39.98;101658.44;5055118;28;20170;-64
2022/02/13 02:24:33;;;;;;;6.18;2.38;;;;;;;17.68;40.03;101658.44;5055092;28;20082;-63
2022/02/13 02:27:00;;;;;;;5.65;2.67;;;;;;;17.70;39.96;101655.72;5054211;28;20024;-65
2022/02/13 02:29:25;;;;;;;6.45;2.63;;;;;;;17.71;39.87;101652.16;5054717;28;20376;-64
2022/02/13 02:31:50;;;;;;;6.10;2.40;;;;;;;17.66;40.12;101652.44;5055170;28;20040;-65
2022/02/13 02:34:16;;;;;;;4.70;2.33;;;;;;;17.70;39.93;101656.56;5053936;28;20067;-65
2022/02/13 02:36:41;;;;;;;5.32;2.47;;;;;;;17.68;40.04;101644.44;5054615;28;20266;-65
2022/02/13 02:39:06;;;;;;;4.53;2.22;;;;;;;17.70;40.07;101638.09;5054405;28;20057;-65
2022/02/13 02:41:32;;;;;;;5.50;2.40;;;;;;;17.71;39.79;101637.16;5052817;28;20044;-65
2022/02/13 02:43:58;;;;;;;5.47;2.40;;;;;;;17.70;40.08;101624.06;5054661;28;20021;-64
2022/02/13 02:46:23;;;;;;;5.35;2.45;;;;;;;17.69;40.11;101612.69;5054554;28;20025;-64
2022/02/13 02:48:48;;;;;;;5.60;2.70;;;;;;;17.73;40.22;101613.34;5054143;28;20033;-64
2022/02/13 02:51:14;;;;;;;6.30;2.45;;;;;;;17.74;40.05;101602.69;5054343;28;20476;-65
2022/02/13 02:53:42;;;;;;;7.10;2.40;;;;;;;17.74;40.01;101599.22;5054468;28;20530;-64
2022/02/13 02:56:08;;;;;;;4.75;2.10;;;;;;;17.77;39.86;101601.66;5053565;28;20349;-64
2022/02/13 02:58:33;;;;;;;3.78;2.20;;;;;;;17.74;39.63;101592.13;5054327;28;20107;-64
2022/02/13 03:00:59;;;;;;;3.85;2.28;;;;;;;17.76;39.69;101603.41;5054389;28;20040;-65
2022/02/13 03:03:27;;;;;;;6.10;2.25;;;;;;;17.74;39.33;101589.50;5053280;28;20032;-64
2022/02/13 03:05:52;;;;;;;7.00;2.17;;;;;;;17.75;39.30;101588.56;5054382;28;20037;-64
2022/02/13 03:08:19;;;;;;;5.05;2.20;;;;;;;17.76;39.47;101586.75;5053845;28;20032;-65
2022/02/13 03:10:45;;;;;;;6.53;2.47;;;;;;;17.77;39.49;101586.66;5053350;28;20020;-65
2022/02/13 03:13:20;;;;;;;5.88;2.03;;;;;;;17.79;39.62;101581.28;5054213;28;20039;-64
2022/02/13 03:15:46;;;;;;;6.63;2.40;;;;;;;17.80;39.91;101572.44;5053580;28;20033;-64
2022/02/13 03:18:11;;;;;;;4.90;2.10;;;;;;;17.80;39.69;101564.53;5054002;28;20021;-64
2022/02/13 03:20:36;;;;;;;5.05;2.13;;;;;;;17.80;39.50;101553.13;5053939;28;20047;-64
2022/02/13 03:23:02;;;;;;;5.27;2.10;;;;;;;17.82;39.48;101564.41;5053130;28;21004;-64
2022/02/13 03:25:27;;;;;;;6.03;2.28;;;;;;;17.83;39.34;101566.09;5053495;28;20300;-64
2022/02/13 03:27:52;;;;;;;5.55;2.40;;;;;;;17.81;39.47;101563.56;5054017;28;20017;-64
2022/02/13 03:30:18;;;;;;;5.60;2.00;;;;;;;17.82;39.22;101556.50;5052954;28;20053;-64
2022/02/13 03:32:46;;;;;;;7.43;2.35;;;;;;;17.82;39.46;101551.25;5054226;28;20100;-64
2022/02/13 03:35:12;;;;;;;4.55;1.90;;;;;;;17.80;39.21;101546.06;5053489;28;20027;-64
2022/02/13 03:37:38;;;;;;;4.15;1.90;;;;;;;17.81;39.28;101546.91;5052804;28;20033;-64
2022/02/13 03:40:05;;;;;;;4.43;2.17;;;;;;;17.80;39.46;101545.19;5053411;28;20048;-65
2022/02/13 03:42:30;;;;;;;5.72;2.00;;;;;;;17.81;39.36;101546.91;5053026;28;20072;-65
2022/02/13 03:44:55;;;;;;;5.85;2.55;;;;;;;17.81;39.54;101539.00;5052980;28;20021;-65
2022/02/13 03:47:20;;;;;;;5.90;2.40;;;;;;;17.81;39.66;101539.00;5052974;28;20024;-65
2022/02/13 03:49:46;;;;;;;5.45;2.17;;;;;;;17.82;39.32;101530.97;5053458;28;20270;-65
2022/02/13 03:52:11;;;;;;;4.45;2.10;;;;;;;17.81;39.79;101534.56;5052260;28;20124;-65
2022/02/13 03:54:36;;;;;;;5.75;2.17;;;;;;;17.82;39.47;101541.53;5053309;28;20024;-64
2022/02/13 03:57:02;;;;;;;6.00;2.13;;;;;;;17.82;39.42;101530.16;5053473;28;20028;-64
2022/02/13 03:59:27;;;;;;;5.22;2.05;;;;;;;17.80;39.14;101540.78;5051148;28;20278;-64
2022/02/13 04:01:52;;;;;;;5.43;2.22;;;;;;;17.82;38.98;101535.41;5053201;28;20025;-64
2022/02/13 04:04:18;;;;;;;4.78;2.10;;;;;;;17.81;39.19;101534.56;5052625;28;20041;-64
2022/02/13 04:06:43;;;;;;;4.53;1.80;;;;;;;17.81;39.29;101537.19;5052684;28;20132;-65
2022/02/13 04:09:09;;;;;;;5.03;1.90;;;;;;;17.83;39.62;101529.19;5052596;28;20035;-65
2022/02/13 04:11:34;;;;;;;4.50;2.10;;;;;;;17.84;39.54;101530.88;5053120;28;20112;-65
2022/02/13 04:13:59;;;;;;;5.72;2.45;;;;;;;17.83;39.42;101524.78;5052395;28;20324;-64
2022/02/13 04:16:24;;;;;;;4.75;2.00;;;;;;;17.84;39.50;101517.69;5052687;28;20021;-65
2022/02/13 04:18:50;;;;;;;5.30;2.35;;;;;;;17.84;39.38;101509.78;5052265;28;20066;-65
2022/02/13 04:21:16;;;;;;;5.28;2.05;;;;;;;17.84;39.27;101499.22;5052646;28;20032;-65
2022/02/13 04:23:42;;;;;;;4.97;1.90;;;;;;;17.84;39.04;101499.22;5052737;28;20465;-64
2022/02/13 04:26:07;;;;;;;4.07;1.83;;;;;;;17.83;39.07;101498.41;5051899;28;20071;-65
2022/02/13 04:28:33;;;;;;;5.53;2.00;;;;;;;17.84;39.34;101492.16;5052629;28;20357;-64
2022/02/13 04:30:58;;;;;;;6.72;2.35;;;;;;;17.83;39.51;101485.22;5052881;28;20032;-65
2022/02/13 04:33:23;;;;;;;4.28;2.00;;;;;;;17.85;39.89;101487.72;5051506;28;20544;-65
2022/02/13 04:35:52;;;;;;;4.00;1.90;;;;;;;17.84;39.53;101489.53;5052758;28;20154;-65
2022/02/13 04:38:17;;;;;;;5.65;2.20;;;;;;;17.85;39.46;101475.41;5052075;28;20033;-65
2022/02/13 04:40:43;;;;;;;5.00;2.33;;;;;;;17.86;39.51;101476.22;5051799;28;20028;-65
2022/02/13 04:43:08;;;;;;;4.75;2.13;;;;;;;17.86;39.10;101465.69;5052307;28;20627;-65
2022/02/13 04:45:34;;;;;;;5.47;2.22;;;;;;;17.85;39.34;101470.13;5052442;28;20045;-65
2022/02/13 04:48:00;;;;;;;4.68;1.80;;;;;;;17.82;39.20;101475.59;5051654;28;20108;-65
2022/02/13 04:50:26;;;;;;;4.18;1.80;;;;;;;17.86;39.23;101481.50;5052045;28;20163;-65
2022/02/13 04:52:55;;;;;;;4.90;2.17;;;;;;;17.86;39.10;101484.13;5052278;28;20029;-65
2022/02/13 04:55:21;;;;;;;3.65;1.73;;;;;;;17.85;39.46;101477.16;5051345;28;20029;-65
2022/02/13 04:57:48;;;;;;;5.00;2.13;;;;;;;17.86;39.58;101484.13;5052549;28;20028;-64
2022/02/13 05:00:17;;;;;;;5.63;2.00;;;;;;;17.86;39.57;101490.25;5051894;28;20049;-64
2022/02/13 05:02:44;;;;;;;4.22;2.00;;;;;;;17.87;39.32;101478.75;5051341;28;20017;-64
2022/02/13 05:05:09;;;;;;;4.60;1.80;;;;;;;17.87;39.64;101481.41;5051340;28;20068;-64
2022/02/13 05:07:35;;;;;;;6.07;2.03;;;;;;;17.87;39.37;101472.66;5052360;28;20425;-64
2022/02/13 05:10:01;;;;;;;4.95;1.98;;;;;;;17.87;39.30;101470.84;5051659;28;20033;-65
2022/02/13 05:12:29;;;;;;;6.25;1.92;;;;;;;17.85;39.11;101449.03;5051976;28;20035;-65
2022/02/13 05:14:54;;;;;;;5.45;1.90;;;;;;;17.85;39.26;101456.06;5052251;28;20029;-65
2022/02/13 05:17:23;;;;;;;5.82;2.20;;;;;;;17.85;39.36;101456.94;5051000;28;20107;-65
2022/02/13 05:19:49;;;;;;;5.35;2.10;;;;;;;17.86;39.83;101455.97;5052138;28;20039;-65
2022/02/13 05:22:16;;;;;;;5.03;1.83;;;;;;;17.86;39.71;101458.59;5051228;28;20037;-65
2022/02/13 05:24:41;;;;;;;4.43;1.80;;;;;;;17.88;39.33;101461.16;5052177;28;20033;-65
2022/02/13 05:27:07;;;;;;;4.50;1.90;;;;;;;17.88;39.57;101456.75;5051974;28;20079;-65
2022/02/13 05:29:34;;;;;;;5.13;2.30;;;;;;;17.88;39.20;101451.47;5051119;28;20025;-65
2022/02/13 05:31:59;;;;;;;4.10;1.98;;;;;;;17.89;39.20;101447.88;5052036;28;20029;-65
2022/02/13 05:34:25;;;;;;;4.97;2.10;;;;;;;17.86;38.89;101436.69;5051395;28;20021;-65
2022/02/13 05:36:50;;;;;;;5.95;2.30;;;;;;;17.87;39.40;101451.56;5051420;28;20048;-65
2022/02/13 05:39:16;;;;;;;4.60;2.00;;;;;;;17.87;39.05;101443.66;5051586;28;20044;-65
2022/02/13 05:41:42;;;;;;;4.43;2.03;;;;;;;17.86;39.13;101428.75;5051805;28;20123;-65
2022/02/13 05:44:07;;;;;;;6.55;2.10;;;;;;;17.87;39.32;101438.38;5051115;28;20031;-65
2022/02/13 05:46:32;;;;;;;4.53;1.70;;;;;;;17.87;39.56;101430.47;5051773;28;20021;-65
2022/02/13 05:48:58;;;;;;;4.57;1.97;;;;;;;17.88;39.49;101422.47;5051558;28;20099;-65
2022/02/13 05:51:25;;;;;;;7.18;1.80;;;;;;;17.89;39.49;101420.66;5050672;28;20332;-65
2022/02/13 05:53:51;;;;;;;4.78;2.00;;;;;;;17.87;39.19;101414.66;5051844;28;20025;-65
2022/02/13 05:56:16;;;;;;;4.53;1.83;;;;;;;17.84;38.90;101409.59;5051373;28;20425;-64
2022/02/13 05:58:42;;;;;;;4.40;1.98;;;;;;;17.86;39.01;101408.50;5050743;28;20469;-63
2022/02/13 06:01:08;;;;;;;4.32;2.00;;;;;;;17.86;38.90;101411.13;5051626;28;20516;-64
2022/02/13 06:03:33;;;;;;;6.75;1.90;;;;;;;17.87;39.19;101406.72;5051372;28;20059;-64
2022/02/13 06:05:59;;;;;;;5.93;2.17;;;;;;;17.87;39.31;101397.03;5051140;28;20455;-64
2022/02/13 06:08:24;;;;;;;4.90;1.90;;;;;;;17.89;39.68;101407.50;5051089;28;20453;-64
2022/02/13 06:10:49;;;;;;;5.38;2.00;;;;;;;17.89;40.77;101400.41;5051648;28;20045;-65
2022/02/13 06:13:14;;;;;;;5.40;2.00;;;;;;;17.93;41.01;101387.88;5050525;28;20029;-64
2022/02/13 06:15:40;;;;;;;5.27;1.90;;;;;;;17.94;41.46;101390.41;5051666;28;20266;-63
2022/02/13 06:18:05;;;;;;;4.10;1.73;;;;;;;17.96;41.08;101374.47;5054963;28;20270;-65
2022/02/13 06:20:36;;;;;;;4.33;1.90;;;;;;;17.99;40.95;101370.75;5053868;28;20487;-63
2022/02/13 06:23:02;;;;;;;4.20;1.70;;;;;;;18.00;41.25;101373.28;5055008;28;20040;-64
2022/02/13 06:25:30;;;;;;;5.30;1.77;;;;;;;18.01;41.14;101371.47;5053796;28;20037;-64
2022/02/13 06:27:56;;;;;;;5.10;2.13;;;;;;;18.02;41.13;101363.44;5054758;28;20090;-65
2022/02/13 06:30:21;;;;;;;4.90;1.93;;;;;;;18.04;41.09;101364.19;5054348;28;20056;-66
2022/02/13 06:32:49;;;;;;;5.05;1.83;;;;;;;18.06;41.13;101356.19;5053992;28;20581;-64
2022/02/13 06:35:14;;;;;;;4.65;1.98;;;;;;;18.07;41.54;101356.06;5054528;28;20025;-65
2022/02/13 06:37:39;;;;;;;4.17;1.83;;;;;;;18.07;41.26;101353.44;5054434;28;20040;-64
2022/02/13 06:40:05;;;;;;;5.32;1.70;;;;;;;18.07;41.27;101358.69;5053744;28;20417;-65
2022/02/13 06:42:30;;;;;;;4.50;1.85;;;;;;;18.07;41.25;101353.44;5053932;28;20025;-64
2022/02/13 06:44:55;;;;;;;4.30;1.73;;;;;;;18.10;41.16;101362.88;5054560;28;20029;-65
2022/02/13 06:47:21;;;;;;;4.63;2.00;;;;;;;18.10;41.41;101357.63;5053192;28;20734;-64
2022/02/13 06:49:46;;;;;;;4.93;1.83;;;;;;;18.08;41.97;101359.53;5054612;28;20274;-64
2022/02/13 06:52:11;;;;;;;4.80;1.80;;;;;;;18.12;41.40;101355.72;5054362;28;20274;-64
2022/02/13 06:54:36;;;;;;;3.50;1.80;;;;;;;18.13;41.25;101354.75;5053575;28;20033;-63
2022/02/13 06:57:02;;;;;;;6.60;3.50;;;;;;;18.14;41.60;101356.44;5054459;28;20024;-64
2022/02/13 06:59:27;;;;;;;5.20;1.98;;;;;;;18.16;41.74;101353.69;5053859;28;20277;-64
2022/02/13 07:01:52;;;;;;;6.05;2.08;;;;;;;18.16;41.63;101351.91;5053253;28;20032;-64
2022/02/13 07:04:18;;;;;;;4.57;1.77;;;;;;;18.17;41.96;101347.47;5054202;28;20025;-63
2022/02/13 07:06:43;;;;;;;4.73;2.03;;;;;;;18.18;41.75;101352.63;5054172;28;20032;-63
2022/02/13 07:09:08;;;;;;;4.38;1.73;;;;;;;18.18;41.42;101342.06;5053300;28;20042;-64
2022/02/13 07:11:34;;;;;;;6.13;2.00;;;;;;;18.17;41.83;101335.13;5054257;28;20021;-64
2022/02/13 07:13:59;;;;;;;5.00;1.80;;;;;;;18.19;42.06;101341.13;5054209;28;20021;-63
2022/02/13 07:16:25;;;;;;;5.38;1.80;;;;;;;18.19;41.76;101329.75;5052897;28;20040;-63
2022/02/13 07:18:51;;;;;;;4.15;1.70;;;;;;;18.20;41.98;101332.25;5054314;28;20029;-63
2022/02/13 07:21:16;;;;;;;4.40;1.70;;;;;;;18.21;42.14;101330.47;5053685;28;20035;-64
2022/02/13 07:23:42;;;;;;;5.55;1.90;;;;;;;18.22;42.44;101330.34;5053309;28;20029;-64
2022/02/13 07:26:07;;;;;;;4.50;1.70;;;;;;;18.25;42.13;101334.56;5053847;28;20029;-64
2022/02/13 07:31:16;;;;;;;3.97;1.40;;;;;;;18.29;42.45;101325.44;5053647;28;20082;-64
2022/02/13 07:33:41;;;;;;;5.93;1.50;;;;;;;18.31;42.25;101328.84;5054018;28;20029;-67
2022/02/13 07:36:07;;;;;;;14.57;1.80;;;;;;;18.36;42.06;101328.47;5052937;28;20036;-67
2022/02/13 07:38:33;;;;;;;4.28;1.45;;;;;;;18.42;42.09;101326.22;5053677;28;20041;-66
2022/02/13 07:40:58;;;;;;;4.38;1.63;;;;;;;18.51;42.59;101329.13;5053621;28;20120;-65
2022/02/13 07:43:23;;;;;;;5.25;1.50;;;;;;;18.56;42.46;101330.44;5052611;28;20025;-65
2022/02/13 07:45:48;;;;;;;4.27;1.87;;;;;;;18.61;42.29;101322.19;5053746;28;20043;-70
2022/02/13 07:48:14;;;;;;;3.87;1.80;;;;;;;18.66;40.34;101322.69;5053546;28;20404;-69
2022/02/13 07:50:39;;;;;;;5.68;1.90;;;;;;;18.68;40.88;101331.34;5052723;28;20286;-67
2022/02/13 07:53:05;;;;;;;5.65;1.52;;;;;;;18.71;41.68;101320.53;5053512;28;20606;-68
2022/02/13 07:55:32;;;;;;;6.55;1.65;;;;;;;18.77;41.97;101322.72;5053078;28;20032;-67
2022/02/13 07:57:57;;;;;;;4.82;1.90;;;;;;;18.80;41.91;101325.13;5052656;28;20472;-67
2022/02/13 08:00:22;;;;;;;2.92;1.33;;;;;;;18.86;41.74;101326.47;5052825;28;20021;-66
2022/02/13 08:02:48;;;;;;;3.47;1.48;;;;;;;18.91;42.38;101318.19;5053373;28;20186;-67
2022/02/13 08:05:14;;;;;;;4.90;2.30;;;;;;;18.94;42.45;101325.88;5052243;28;20035;-67
2022/02/13 08:07:46;;;;;;;6.35;1.85;;;;;;;18.98;42.00;101327.34;5053121;28;20288;-66
2022/02/13 08:10:13;;;;;;;3.88;1.60;;;;;;;19.01;42.50;101327.94;5052995;28;20035;-66
2022/02/13 08:12:38;;;;;;;4.38;1.60;;;;;;;19.05;42.77;101328.53;5052168;28;20021;-66
2022/02/13 08:15:03;;;;;;;5.37;1.70;;;;;;;19.10;42.73;101317.63;5053846;28;20107;-67
2022/02/13 08:17:29;;;;;;;4.78;1.63;;;;;;;19.15;42.34;101320.72;5052908;28;20294;-65
2022/02/13 08:19:54;;;;;;;6.40;1.70;;;;;;;19.20;42.45;101321.22;5052162;28;20017;-65
2022/02/13 08:22:19;;;;;;;6.37;1.70;;;;;;;19.24;41.91;101312.09;5052645;28;20302;-65
2022/02/13 08:24:46;;;;;;;7.50;2.23;;;;;;;19.31;42.61;101318.59;5052937;28;20638;-62
2022/02/13 08:27:11;;;;;;;7.15;2.05;;;;;;;19.37;42.75;101323.38;5051717;28;20361;-66
2022/02/13 08:29:36;;;;;;;7.20;2.15;;;;;;;19.42;42.32;101314.25;5052970;28;20116;-66
2022/02/13 08:32:02;;;;;;;9.57;2.83;;;;;;;19.43;42.79;101313.28;5052316;28;20021;-66
2022/02/13 08:34:27;;;;;;;8.60;3.72;;;;;;;19.49;43.07;101312.81;5052539;28;20309;-66
2022/02/13 08:36:52;;;;;;;7.38;3.63;;;;;;;19.54;43.06;101310.63;5052897;28;20033;-68
2022/02/13 08:39:18;;;;;;;8.57;3.57;;;;;;;19.57;43.38;101311.22;5050585;28;20068;-67
2022/02/13 08:41:43;;;;;;;7.97;3.87;;;;;;;19.60;43.27;101301.34;5052294;28;20281;-67
2022/02/13 08:44:08;;;;;;;9.23;4.40;;;;;;;19.60;43.11;101304.84;5052251;28;20353;-67
2022/02/13 08:46:34;;;;;;;10.15;4.45;;;;;;;19.63;42.74;101295.81;5051646;28;20469;-66
2022/02/13 08:49:01;;;;;;;8.43;4.03;;;;;;;19.63;42.34;101294.03;5052853;28;20078;-66
2022/02/13 08:51:27;;;;;;;12.27;3.80;;;;;;;19.63;42.55;101295.81;5052269;28;20087;-66
2022/02/13 08:53:52;;;;;;;9.80;4.40;;;;;;;19.63;42.49;101301.09;5051979;28;20021;-68
2022/02/13 08:56:17;;;;;;;7.22;3.67;;;;;;;19.58;41.62;101296.19;5051979;28;20107;-64
2022/02/13 08:58:42;;;;;;;8.30;3.25;;;;;;;19.57;42.75;101289.25;5052393;28;20032;-66
2022/02/13 09:01:08;;;;;;;7.03;3.13;;;;;;;19.63;42.65;101285.25;5051502;28;20443;-68
2022/02/13 09:03:34;;;;;;;8.70;3.58;;;;;;;19.65;43.08;101280.69;5052619;28;20285;-70
2022/02/13 09:05:59;;;;;;;8.27;3.40;;;;;;;19.68;43.13;101277.81;5053491;28;20033;-68
2022/02/13 09:08:24;;;;;;;9.23;3.40;;;;;;;19.71;43.27;101274.88;5052510;28;20277;-67
2022/02/13 09:10:49;;;;;;;;;;;;;;;19.73;42.99;101276.44;5053205;28;20289;-72
2022/02/13 09:13:15;;;;;;;7.90;3.00;;;;;;;19.75;42.83;101273.69;5053439;28;19920;-77
2022/02/13 09:15:40;;;;;;;7.27;3.00;;;;;;;19.79;42.62;101263.72;5054060;28;20338;-71
2022/02/13 09:18:09;;;;;;;;;;;;;;;19.82;43.19;101266.97;5056394;28;20290;-70
2022/02/13 09:20:34;;;;;;;;;;;;;;;19.85;43.12;101244.69;5053238;28;19916;-74
2022/02/13 09:22:59;;;;;;;;;;;;;;;19.87;42.96;101232.22;5051942;28;19935;-73
2022/02/13 09:25:27;;;;;;;;;;;;;;;19.88;42.74;101229.41;5052129;28;19909;-69
2022/02/13 09:27:52;;;;;;;;;;;;;;;19.88;42.80;101218.81;5052661;28;19924;-75
2022/02/13 09:30:18;;;;;;;5.80;2.87;;;;;;;19.86;42.55;101220.78;5051783;28;19913;-71
2022/02/13 09:32:43;;;;;;;7.03;2.90;;;;;;;19.87;42.53;101219.81;5052228;28;20481;-67
2022/02/13 09:35:09;;;;;;;6.95;2.70;;;;;;;19.86;42.67;101206.72;5051676;28;20024;-67
2022/02/13 09:37:34;;;;;;;6.07;2.55;;;;;;;19.87;42.24;101214.53;5051183;28;20024;-70
2022/02/13 09:40:00;;;;;;;7.30;2.92;;;;;;;19.89;42.47;101207.28;5051742;28;20071;-70
2022/02/13 09:42:27;;;;;;;6.80;2.80;;;;;;;19.92;42.13;101211.50;5051142;28;20067;-77
2022/02/13 09:44:52;;;;;;;5.32;2.42;;;;;;;19.92;42.51;101204.41;5052135;28;20059;-68
2022/02/13 09:47:20;;;;;;;6.88;2.58;;;;;;;19.92;42.46;101201.75;5051737;28;20094;-69
2022/02/13 09:49:45;;;;;;;7.65;2.40;;;;;;;19.92;41.61;101214.16;5052512;28;20041;-68
2022/02/13 09:52:11;;;;;;;5.40;2.25;;;;;;;19.91;42.10;101194.78;5055778;28;20500;-72
2022/02/13 09:54:37;;;;;;;8.52;2.70;;;;;;;19.90;41.71;101197.53;5055577;28;20029;-71
2022/02/13 09:59:58;;;;;;;5.95;2.20;;;;;;;19.84;41.27;101193.63;5056156;28;20082;-70
2022/02/13 10:02:37;;;;;;;7.55;2.53;;;;;;;19.78;41.23;101182.72;5055204;28;20037;-69
2022/02/13 10:05:07;;;;;;;;;;;;;;;19.78;41.51;101182.72;5055167;28;20124;-70
2022/02/13 10:07:33;;;;;;;;;;;;;;;19.74;41.56;101180.28;5055773;28;19947;-69
2022/02/13 10:09:59;;;;;;;;;;;;;;;19.70;41.41;101176.22;5056024;28;19913;-68
2022/02/13 10:12:30;;;;;;;;;;;;;;;19.68;41.25;101175.50;5054736;28;20311;-72
2022/02/13 10:14:55;;;;;;;;;;;;;;;19.65;41.27;101165.19;5055734;28;20013;-68
2022/02/13 10:17:20;;;;;;;;;;;;;;;19.64;41.42;101162.66;5055476;28;19963;-69
2022/02/13 10:19:53;;;;;;;6.87;3.17;;;;;;;19.64;42.13;101160.84;5054313;28;20527;-67
2022/02/13 10:22:33;;;;;;;5.50;2.85;;;;;;;19.64;42.04;101152.91;5055069;28;20039;-69
2022/02/13 10:25:14;;;;;;;6.22;3.22;;;;;;;19.63;42.12;101148.63;5054694;28;20087;-69
2022/02/13 10:27:47;;;;;;;5.80;2.67;;;;;;;19.63;41.91;101148.63;5054907;28;20035;-68
2022/02/13 10:30:13;;;;;;;6.90;2.95;;;;;;;19.61;42.39;101142.59;5054516;28;20110;-72
2022/02/13 10:32:41;;;;;;;5.90;2.80;;;;;;;19.61;42.02;101145.25;5054456;28;20076;-71
2022/02/13 10:35:12;;;;;;;7.25;2.95;;;;;;;19.59;42.00;101152.47;5055013;28;20033;-71
2022/02/13 10:37:44;;;;;;;6.40;3.00;;;;;;;19.58;42.19;101145.50;5054809;28;20094;-71
2022/02/13 10:40:15;;;;;;;5.75;2.85;;;;;;;19.56;42.30;101147.44;5053663;28;20049;-69
2022/02/13 10:42:41;;;;;;;7.25;2.88;;;;;;;19.56;42.23;101153.56;5054733;28;20499;-74
2022/02/13 10:45:23;;;;;;;6.57;3.00;;;;;;;19.60;42.28;101142.72;5055522;28;20040;-70
2022/02/13 10:47:51;;;;;;;6.00;2.67;;;;;;;19.62;42.13;101143.47;5054292;28;20033;-71
2022/02/13 10:50:18;;;;;;;6.13;3.03;;;;;;;19.61;42.29;101137.31;5054424;28;20029;-67
2022/02/13 10:52:46;;;;;;;7.78;3.50;;;;;;;19.60;42.27;101146.22;5053917;28;20029;-71
2022/02/13 10:55:12;;;;;;;5.40;2.70;;;;;;;19.58;42.15;101141.06;5054002;28;20029;-69
2022/02/13 10:57:40;;;;;;;6.68;3.25;;;;;;;19.58;42.14;101141.06;5054627;28;20021;-69
2022/02/13 11:00:09;;;;;;;6.05;2.88;;;;;;;19.58;42.53;101129.63;5053803;28;20021;-70
2022/02/13 11:02:36;;;;;;;9.57;4.72;;;;;;;19.58;42.72;101127.00;5053551;28;20029;-70
2022/02/13 11:05:02;;;;;;;6.45;3.30;;;;;;;19.57;42.36;101123.50;5054593;28;20052;-68
2022/02/13 11:07:29;;;;;;;5.78;3.05;;;;;;;19.56;42.23;101116.53;5053248;28;20033;-69
2022/02/13 11:09:56;;;;;;;8.40;3.25;;;;;;;19.58;41.87;101106.69;5054479;28;20025;-69
2022/02/13 11:12:24;;;;;;;8.38;3.30;;;;;;;19.58;42.90;101088.19;5053803;28;20468;-67
2022/02/13 11:14:49;;;;;;;7.45;3.20;;;;;;;19.60;42.88;101081.91;5053504;28;20476;-68
2022/02/13 11:17:30;;;;;;;6.72;3.00;;;;;;;19.62;42.88;101077.38;5053895;28;20036;-68
2022/02/13 11:19:56;;;;;;;5.70;2.80;;;;;;;19.63;42.73;101082.53;5054255;28;20037;-69
2022/02/13 11:22:32;;;;;;;6.82;3.08;;;;;;;19.59;42.25;101054.66;5052720;28;20074;-68
2022/02/13 11:24:57;;;;;;;5.30;2.63;;;;;;;19.56;42.73;101058.38;5054238;28;20045;-70
2022/02/13 11:27:24;;;;;;;6.37;2.43;;;;;;;19.52;42.92;101064.91;5053674;28;20016;-67